createdAt,value
2023-04-17T00:02:10.966Z,99970.31
2023-04-17T00:04:42.477Z,99965.06
2023-04-17T00:07:09.525Z,99966.84
2023-04-17T00:09:38.524Z,99972.84
2023-04-17T00:12:05.402Z,99966.88
2023-04-17T00:14:32.034Z,99962.66
2023-04-17T00:16:58.753Z,99958.19
2023-04-17T00:19:25.318Z,99965.25
2023-04-17T00:21:52.166Z,99970.50
2023-04-17T00:24:18.872Z,99963.47
2023-04-17T00:26:47.867Z,99961.78
2023-04-17T00:29:14.448Z,99958.34
2023-04-17T00:31:43.815Z,99954.91
2023-04-17T00:34:12.814Z,99959.16
2023-04-17T00:36:39.578Z,99951.97
2023-04-17T00:39:06.196Z,99955.28
2023-04-17T00:41:32.996Z,99955.34
2023-04-17T00:43:59.571Z,99962.34
2023-04-17T00:46:26.232Z,99964.94
2023-04-17T00:48:52.947Z,99960.69
2023-04-17T00:51:19.554Z,99956.38
2023-04-17T00:53:48.706Z,99966.84
2023-04-17T00:56:17.664Z,99962.50
2023-04-17T00:58:46.704Z,99956.25
2023-04-17T01:01:15.655Z,99956.19
2023-04-17T01:03:42.384Z,99957.03
2023-04-17T01:06:11.946Z,99956.16
2023-04-17T01:08:42.837Z,99961.13
2023-04-17T01:11:10.162Z,99961.09
2023-04-17T01:13:52.742Z,99956.69
2023-04-17T01:16:19.877Z,99959.34
2023-04-17T01:18:49.242Z,99965.38
2023-04-17T01:21:18.467Z,99960.19
2023-04-17T01:23:47.077Z,99961.13
2023-04-17T01:26:16.749Z,99953.50
2023-04-17T01:28:51.978Z,99953.59
2023-04-17T01:31:19.349Z,99963.09
2023-04-17T01:33:46.103Z,99956.91
2023-04-17T01:36:15.312Z,99955.13
2023-04-17T01:38:44.855Z,99961.16
2023-04-17T01:41:11.620Z,99951.50
2023-04-17T01:43:41.942Z,99949.81
2023-04-17T01:46:08.921Z,99950.75
2023-04-17T01:48:38.338Z,99953.44
2023-04-17T01:51:05.447Z,99954.41
2023-04-17T01:53:34.992Z,99952.66
2023-04-17T01:56:02.038Z,99952.63
2023-04-17T01:58:31.300Z,99964.72
2023-04-17T02:01:00.319Z,99954.38
2023-04-17T02:03:27.352Z,99955.13
2023-04-17T02:05:54.147Z,99962.94
2023-04-17T02:08:20.808Z,99951.59
2023-04-17T02:10:47.372Z,99957.66
2023-04-17T02:13:14.057Z,99955.94
2023-04-17T02:15:44.013Z,99957.72
2023-04-17T02:18:10.848Z,99961.16
2023-04-17T02:20:40.074Z,99961.19
2023-04-17T02:23:09.405Z,99955.13
2023-04-17T02:25:38.991Z,99958.69
2023-04-17T02:28:06.839Z,99955.13
2023-04-17T02:30:34.491Z,99960.16
2023-04-17T02:33:03.726Z,99953.28
2023-04-17T02:35:35.316Z,99950.72
2023-04-17T02:38:04.419Z,99947.47
2023-04-17T02:40:35.383Z,99945.84
2023-04-17T02:43:06.884Z,99947.69
2023-04-17T02:45:37.106Z,99950.22
2023-04-17T02:48:07.482Z,99953.72
2023-04-17T02:50:42.646Z,99941.53
2023-04-17T02:53:14.606Z,99947.69
2023-04-17T02:55:46.168Z,99940.72
2023-04-17T02:58:16.142Z,99951.16
2023-04-17T03:00:45.157Z,99953.72
2023-04-17T03:03:15.669Z,99952.06
2023-04-17T03:05:42.540Z,99952.88
2023-04-17T03:08:12.237Z,99951.81
2023-04-17T03:10:47.696Z,99949.97
2023-04-17T03:13:19.516Z,99965.59
2023-04-17T03:15:46.292Z,99967.38
2023-04-17T03:18:12.926Z,99965.44
2023-04-17T03:20:42.109Z,99967.16
2023-04-17T03:23:08.927Z,99958.59
2023-04-17T03:25:35.571Z,99948.34
2023-04-17T03:28:04.071Z,99956.31
2023-04-17T03:30:33.218Z,99962.41
2023-04-17T03:33:03.946Z,99951.88
2023-04-17T03:35:37.582Z,99958.75
2023-04-17T03:38:07.459Z,99966.47
2023-04-17T03:40:37.296Z,99962.78
2023-04-17T03:43:04.167Z,99966.19
2023-04-17T03:45:32.264Z,99968.97
2023-04-17T03:47:59.075Z,99960.47
2023-04-17T03:50:28.651Z,99966.75
2023-04-17T03:53:00.462Z,99967.72
2023-04-17T03:55:30.818Z,99963.16
2023-04-17T03:58:00.352Z,99969.94
2023-04-17T04:00:31.759Z,99972.56
2023-04-17T04:03:05.723Z,99971.84
2023-04-17T04:05:38.644Z,99972.00
2023-04-17T04:08:08.919Z,99972.81
2023-04-17T04:10:45.086Z,99977.09
2023-04-17T04:13:18.245Z,99983.13
2023-04-17T04:15:51.187Z,99980.53
2023-04-17T04:18:20.281Z,99979.59
2023-04-17T04:20:48.718Z,99971.88
2023-04-17T04:23:25.468Z,99978.84
2023-04-17T04:25:56.893Z,99978.72
2023-04-17T04:28:43.017Z,99977.88
2023-04-17T04:31:23.364Z,99987.53
2023-04-17T04:33:55.184Z,99989.41
2023-04-17T04:36:25.168Z,99990.28
2023-04-17T04:39:08.532Z,99997.22
2023-04-17T04:41:38.375Z,100002.41
2023-04-17T04:44:09.191Z,100005.94
2023-04-17T04:46:38.569Z,100009.44
2023-04-17T04:49:08.231Z,100016.66
2023-04-17T04:51:38.073Z,100015.91
2023-04-17T04:54:12.182Z,100012.59
2023-04-17T04:56:46.401Z,100016.91
2023-04-17T04:59:15.338Z,100014.41
2023-04-17T05:01:48.097Z,100018.81
2023-04-17T05:04:18.095Z,100023.31
2023-04-17T05:06:46.806Z,100030.47
2023-04-17T05:09:15.500Z,100027.13
2023-04-17T05:11:46.175Z,100026.22
2023-04-17T05:14:16.079Z,100025.38
2023-04-17T05:16:43.430Z,100028.94
2023-04-17T05:19:10.987Z,100032.44
2023-04-17T05:21:57.285Z,100029.03
2023-04-17T05:24:26.485Z,100030.00
2023-04-17T05:26:57.224Z,100028.38
2023-04-17T05:29:25.283Z,100036.16
2023-04-17T05:31:54.023Z,100035.38
2023-04-17T05:34:43.371Z,100036.22
2023-04-17T05:37:10.638Z,100038.75
2023-04-17T05:39:38.525Z,100035.25
2023-04-17T05:42:07.714Z,100027.38
2023-04-17T05:44:34.743Z,100029.13
2023-04-17T05:47:03.657Z,100028.34
2023-04-17T05:49:31.124Z,100037.09
2023-04-17T05:52:00.606Z,100030.19
2023-04-17T05:54:30.255Z,100045.16
2023-04-17T05:56:57.756Z,100034.94
2023-04-17T05:59:27.433Z,100036.91
2023-04-17T06:01:54.536Z,100046.66
2023-04-17T06:04:22.749Z,100043.16
2023-04-17T06:06:54.274Z,100041.53
2023-04-17T06:09:22.310Z,100048.66
2023-04-17T06:11:50.057Z,100044.38
2023-04-17T06:14:19.842Z,100046.94
2023-04-17T06:16:53.702Z,100046.09
2023-04-17T06:19:25.417Z,100044.41
2023-04-17T06:21:54.223Z,100048.81
2023-04-17T06:24:20.806Z,100051.47
2023-04-17T06:26:47.853Z,100054.16
2023-04-17T06:29:17.426Z,100056.81
2023-04-17T06:31:47.111Z,100057.72
2023-04-17T06:34:16.149Z,100057.75
2023-04-17T06:36:46.988Z,100059.50
2023-04-17T06:39:17.636Z,100059.56
2023-04-17T06:41:44.657Z,100068.34
2023-04-17T06:44:14.655Z,100058.78
2023-04-17T06:46:48.970Z,100061.41
2023-04-17T06:49:15.812Z,100064.03
2023-04-17T06:51:45.981Z,100065.78
2023-04-17T06:54:15.351Z,100061.44
2023-04-17T06:56:46.664Z,100071.09
2023-04-17T06:59:13.856Z,100068.50
2023-04-17T07:01:42.999Z,100071.13
2023-04-17T07:04:12.022Z,100066.75
2023-04-17T07:06:39.806Z,100074.59
2023-04-17T07:09:06.490Z,100072.03
2023-04-17T07:11:35.504Z,100065.91
2023-04-17T07:14:02.162Z,100063.31
2023-04-17T07:16:29.128Z,100065.09
2023-04-17T07:18:56.073Z,100070.34
2023-04-17T07:21:22.767Z,100073.84
2023-04-17T07:23:49.328Z,100073.00
2023-04-17T07:26:16.068Z,100066.03
2023-04-17T07:28:42.802Z,100066.06
2023-04-17T07:31:09.505Z,100068.72
2023-04-17T07:33:38.852Z,100066.97
2023-04-17T07:36:09.323Z,100074.84
2023-04-17T07:38:42.215Z,100073.09
2023-04-17T07:41:08.984Z,100069.59
2023-04-17T07:43:35.716Z,100080.09
2023-04-17T07:46:02.435Z,100073.09
2023-04-17T07:48:31.865Z,100085.34
2023-04-17T07:51:01.742Z,100086.22
2023-04-17T07:53:28.817Z,100081.81
2023-04-17T07:55:58.419Z,100083.59
2023-04-17T07:58:27.447Z,100073.09
2023-04-17T08:00:58.753Z,100081.88
2023-04-17T08:03:31.893Z,100080.97
2023-04-17T08:05:58.830Z,100075.72
2023-04-17T08:08:25.725Z,100079.19
2023-04-17T08:10:54.700Z,100081.81
2023-04-17T08:13:21.324Z,100086.19
2023-04-17T08:15:47.985Z,100079.16
2023-04-17T08:18:14.586Z,100077.41
2023-04-17T08:20:41.768Z,100080.91
2023-04-17T08:23:10.706Z,100083.56
2023-04-17T08:25:37.280Z,100081.81
2023-04-17T08:28:06.479Z,100084.41
2023-04-17T08:30:35.552Z,100079.19
2023-04-17T08:33:04.659Z,100076.50
2023-04-17T08:35:31.361Z,100072.06
2023-04-17T08:38:00.543Z,100077.31
2023-04-17T08:40:27.178Z,100071.94
2023-04-17T08:42:54.142Z,100073.56
2023-04-17T08:45:24.290Z,100066.44
2023-04-17T08:47:53.508Z,100061.81
2023-04-17T08:50:22.648Z,100073.16
2023-04-17T08:52:52.751Z,100067.81
2023-04-17T08:55:30.170Z,100065.97
2023-04-17T08:57:56.811Z,100065.81
2023-04-17T09:00:33.699Z,100070.03
2023-04-17T09:03:01.138Z,100066.38
2023-04-17T09:05:33.610Z,100060.34
2023-04-17T09:08:09.693Z,100063.50
2023-04-17T09:10:42.416Z,100064.00
2023-04-17T09:13:14.561Z,100064.41
2023-04-17T09:15:44.022Z,100069.31
2023-04-17T09:18:22.804Z,100077.19
2023-04-17T09:20:54.468Z,100069.94
2023-04-17T09:23:22.720Z,100069.78
2023-04-17T09:26:08.604Z,100066.34
2023-04-17T09:28:41.392Z,100069.13
2023-04-17T09:31:19.901Z,100071.66
2023-04-17T09:34:07.743Z,100065.41
2023-04-17T09:36:41.668Z,100067.00
2023-04-17T09:39:23.787Z,100062.47
2023-04-17T09:41:51.136Z,100058.91
2023-04-17T09:44:28.366Z,100059.06
2023-04-17T09:46:57.645Z,100051.06
2023-04-17T09:49:30.625Z,100051.91
2023-04-17T09:51:57.863Z,100055.31
2023-04-17T09:54:26.903Z,100054.28
2023-04-17T09:56:56.172Z,100059.84
2023-04-17T09:59:25.443Z,100055.16
2023-04-17T10:01:54.833Z,100049.59
2023-04-17T10:04:24.109Z,100047.91
2023-04-17T10:06:53.380Z,100045.09
2023-04-17T10:09:22.823Z,100042.09
2023-04-17T10:11:49.596Z,100036.72
2023-04-17T10:14:19.298Z,100036.44
2023-04-17T10:16:47.335Z,100044.94
2023-04-17T10:19:35.779Z,100039.84
2023-04-17T10:22:20.688Z,100043.97
2023-04-17T10:24:56.726Z,100037.97
2023-04-17T10:27:26.408Z,100035.59
2023-04-17T10:29:59.876Z,100037.38
2023-04-17T10:32:29.307Z,100038.00
2023-04-17T10:35:01.200Z,100029.22
2023-04-17T10:37:48.989Z,100025.31
2023-04-17T10:40:30.200Z,100022.28
2023-04-17T10:43:17.846Z,100027.25
2023-04-17T10:46:02.984Z,100022.47
2023-04-17T10:48:33.425Z,100022.63
2023-04-17T10:51:00.764Z,100026.44
2023-04-17T10:53:40.820Z,100041.28
2023-04-17T10:56:09.796Z,100035.66
2023-04-17T10:58:54.871Z,100033.34
2023-04-17T11:01:23.420Z,100023.47
2023-04-17T11:03:53.210Z,100020.66
2023-04-17T11:06:20.415Z,100029.88
2023-04-17T11:08:47.304Z,100023.25
2023-04-17T11:11:16.810Z,100025.38
2023-04-17T11:13:46.127Z,100028.53
2023-04-17T11:16:13.340Z,100019.59
2023-04-17T11:18:40.145Z,100024.19
2023-04-17T11:21:09.732Z,100018.81
2023-04-17T11:23:37.299Z,100023.38
2023-04-17T11:26:03.987Z,100021.88
2023-04-17T11:28:30.855Z,100021.75
2023-04-17T11:30:57.483Z,100012.19
2023-04-17T11:33:24.209Z,100016.56
2023-04-17T11:35:52.505Z,100022.09
2023-04-17T11:38:22.433Z,100010.16
2023-04-17T11:40:59.265Z,100015.50
2023-04-17T11:43:26.446Z,100005.66
2023-04-17T11:45:59.451Z,100007.97
2023-04-17T11:48:27.618Z,100008.91
2023-04-17T11:50:59.412Z,100007.53
2023-04-17T11:53:29.061Z,100007.44
2023-04-17T11:56:15.222Z,100015.63
2023-04-17T11:58:54.774Z,100008.66
2023-04-17T12:01:27.231Z,100015.38
2023-04-17T12:03:57.551Z,100015.31
2023-04-17T12:06:31.844Z,100018.59
2023-04-17T12:08:58.531Z,100018.50
2023-04-17T12:11:32.927Z,100017.47
2023-04-17T12:14:00.053Z,100017.06
2023-04-17T12:16:27.032Z,100018.16
2023-04-17T12:18:56.264Z,100019.16
2023-04-17T12:21:24.008Z,100012.41
2023-04-17T12:23:53.402Z,100016.03
2023-04-17T12:26:20.473Z,100012.91
2023-04-17T12:28:47.105Z,100014.81
2023-04-17T12:31:16.310Z,100013.00
2023-04-17T12:33:42.945Z,100008.19
2023-04-17T12:36:10.063Z,100006.56
2023-04-17T12:38:39.777Z,100008.59
2023-04-17T12:41:08.870Z,100005.56
2023-04-17T12:43:38.304Z,99997.63
2023-04-17T12:46:05.381Z,99991.56
2023-04-17T12:48:34.657Z,99997.47
2023-04-17T12:51:06.356Z,99989.50
2023-04-17T12:53:32.960Z,99982.97
2023-04-17T12:55:59.925Z,99986.16
2023-04-17T12:58:28.718Z,99975.34
2023-04-17T13:00:58.211Z,99978.88
2023-04-17T13:03:25.086Z,99977.03
2023-04-17T13:05:54.236Z,99964.16
2023-04-17T13:08:21.400Z,99965.19
2023-04-17T13:10:48.013Z,99965.66
2023-04-17T13:13:14.625Z,99967.34
2023-04-17T13:15:47.516Z,99970.88
2023-04-17T13:18:17.147Z,99959.88
2023-04-17T13:20:48.296Z,99957.88
2023-04-17T13:23:17.158Z,99954.56
2023-04-17T13:25:43.840Z,99960.84
2023-04-17T13:28:11.131Z,99968.56
2023-04-17T13:30:38.008Z,99972.53
2023-04-17T13:33:05.115Z,99978.25
2023-04-17T13:35:32.287Z,99993.31
2023-04-17T13:38:02.478Z,99996.44
2023-04-17T13:40:30.097Z,100002.34
2023-04-17T13:42:56.796Z,99994.13
2023-04-17T13:45:24.076Z,99998.16
2023-04-17T13:47:51.128Z,99994.25
2023-04-17T13:50:17.838Z,99990.13
2023-04-17T13:52:44.577Z,99984.16
2023-04-17T13:55:14.654Z,99988.53
2023-04-17T13:57:41.457Z,99986.00
2023-04-17T14:00:08.384Z,99987.91
2023-04-17T14:02:35.224Z,99987.97
2023-04-17T14:05:04.898Z,99990.63
2023-04-17T14:07:31.772Z,99985.50
2023-04-17T14:09:58.653Z,99988.91
2023-04-17T14:12:25.480Z,99979.97
2023-04-17T14:15:01.875Z,99981.56
2023-04-17T14:17:28.678Z,99979.69
2023-04-17T14:19:55.385Z,99982.47
2023-04-17T14:22:24.378Z,99979.88
2023-04-17T14:24:51.230Z,99974.59
2023-04-17T14:27:22.658Z,99971.97
2023-04-17T14:29:52.101Z,99967.47
2023-04-17T14:32:18.864Z,99972.75
2023-04-17T14:34:50.431Z,99963.94
2023-04-17T14:37:19.985Z,99961.00
2023-04-17T14:39:49.272Z,99958.25
2023-04-17T14:42:15.836Z,99952.25
2023-04-17T14:44:44.000Z,99952.06
2023-04-17T14:47:11.161Z,99952.91
2023-04-17T14:49:40.448Z,99954.44
2023-04-17T14:52:07.580Z,99952.34
2023-04-17T14:54:39.129Z,99959.06
2023-04-17T14:57:13.103Z,99955.38
2023-04-17T14:59:40.383Z,99956.06
2023-04-17T15:02:07.322Z,99956.72
2023-04-17T15:04:34.095Z,99959.34
2023-04-17T15:07:00.998Z,99964.94
2023-04-17T15:09:28.883Z,99949.38
2023-04-17T15:11:56.909Z,99955.47
2023-04-17T15:14:23.607Z,99955.38
2023-04-17T15:16:50.402Z,99963.34
2023-04-17T15:19:17.051Z,99957.50
2023-04-17T15:21:46.893Z,99967.34
2023-04-17T15:24:13.784Z,99954.38
2023-04-17T15:26:44.676Z,99965.03
2023-04-17T15:29:12.315Z,99962.59
2023-04-17T15:31:40.356Z,99959.22
2023-04-17T15:34:14.209Z,99956.72
2023-04-17T15:36:43.941Z,99952.47
2023-04-17T15:39:13.115Z,99962.28
2023-04-17T15:41:40.013Z,99960.78
2023-04-17T15:44:09.053Z,99954.81
2023-04-17T15:46:35.939Z,99959.22
2023-04-17T15:49:08.712Z,99962.94
2023-04-17T15:51:36.240Z,99964.78
2023-04-17T15:54:02.865Z,99962.16
2023-04-17T15:56:29.507Z,99966.50
2023-04-17T15:58:58.602Z,99964.78
2023-04-17T16:01:30.038Z,99964.84
2023-04-17T16:03:57.003Z,99962.28
2023-04-17T16:06:23.851Z,99966.63
2023-04-17T16:08:52.572Z,99963.06
2023-04-17T16:11:19.176Z,99970.03
2023-04-17T16:13:48.102Z,99973.56
2023-04-17T16:16:15.080Z,99962.28
2023-04-17T16:18:46.739Z,99967.63
2023-04-17T16:21:15.848Z,99965.06
2023-04-17T16:23:46.172Z,99965.03
2023-04-17T16:26:17.526Z,99968.56
2023-04-17T16:28:45.885Z,99968.63
2023-04-17T16:31:16.937Z,99970.44
2023-04-17T16:33:46.233Z,99973.06
2023-04-17T16:36:12.942Z,99976.59
2023-04-17T16:38:39.533Z,99973.97
2023-04-17T16:41:09.015Z,99974.88
2023-04-17T16:43:38.597Z,99977.53
2023-04-17T16:46:14.370Z,99981.03
2023-04-17T16:48:48.568Z,99972.28
2023-04-17T16:51:20.651Z,99974.06
2023-04-17T16:53:49.749Z,99975.84
2023-04-17T16:56:16.731Z,99977.59
2023-04-17T16:58:43.425Z,99974.97
2023-04-17T17:01:13.494Z,99977.63
2023-04-17T17:03:43.723Z,99979.41
2023-04-17T17:06:10.600Z,99977.66
2023-04-17T17:08:37.400Z,99988.19
2023-04-17T17:11:05.001Z,99988.22
2023-04-17T17:13:31.759Z,99989.09
2023-04-17T17:15:58.577Z,99982.13
2023-04-17T17:18:25.425Z,99981.25
2023-04-17T17:20:56.035Z,99984.75
2023-04-17T17:23:25.681Z,99985.66
2023-04-17T17:25:54.656Z,99983.03
2023-04-17T17:28:21.339Z,99982.19
2023-04-17T17:30:48.662Z,99984.81
2023-04-17T17:33:17.024Z,99984.81
2023-04-17T17:35:43.620Z,99981.31
2023-04-17T17:38:13.365Z,99994.44
2023-04-17T17:40:42.682Z,99989.13
2023-04-17T17:43:13.523Z,99990.03
2023-04-17T17:45:40.152Z,99982.16
2023-04-17T17:48:07.162Z,99981.28
2023-04-17T17:50:33.761Z,99989.13
2023-04-17T17:53:00.396Z,99996.97
2023-04-17T17:55:27.050Z,99991.75
2023-04-17T17:57:53.658Z,99992.59
2023-04-17T18:00:25.781Z,99997.84
2023-04-17T18:02:55.227Z,99999.56
2023-04-17T18:05:21.992Z,100000.44
2023-04-17T18:07:51.580Z,99998.63
2023-04-17T18:10:20.424Z,100001.28
2023-04-17T18:12:49.885Z,100016.97
2023-04-17T18:15:19.397Z,100014.34
2023-04-17T18:17:46.256Z,100019.59
2023-04-17T18:20:13.054Z,100017.84
2023-04-17T18:22:42.185Z,100013.47
2023-04-17T18:25:12.539Z,100026.53
2023-04-17T18:27:41.648Z,100028.31
2023-04-17T18:30:08.733Z,100025.69
2023-04-17T18:32:39.888Z,100024.81
2023-04-17T18:35:09.852Z,100024.81
2023-04-17T18:37:36.973Z,100033.53
2023-04-17T18:40:08.300Z,100024.81
2023-04-17T18:42:38.372Z,100032.69
2023-04-17T18:45:05.324Z,100028.28
2023-04-17T18:47:34.523Z,100030.88
2023-04-17T18:50:05.647Z,100028.28
2023-04-17T18:52:32.289Z,100024.78
2023-04-17T18:54:58.897Z,100030.03
2023-04-17T18:57:26.140Z,100025.69
2023-04-17T18:59:52.705Z,100035.28
2023-04-17T19:02:19.390Z,100034.38
2023-04-17T19:04:46.021Z,100035.22
2023-04-17T19:07:13.070Z,100045.66
2023-04-17T19:09:42.107Z,100050.84
2023-04-17T19:12:14.266Z,100051.72
2023-04-17T19:14:41.138Z,100054.25
2023-04-17T19:17:07.791Z,100048.13
2023-04-17T19:19:34.376Z,100047.22
2023-04-17T19:22:01.016Z,100055.91
2023-04-17T19:24:27.624Z,100057.59
2023-04-17T19:26:54.629Z,100056.69
2023-04-17T19:29:21.303Z,100057.53
2023-04-17T19:31:48.030Z,100057.53
2023-04-17T19:34:15.069Z,100060.09
2023-04-17T19:36:43.589Z,100061.81
2023-04-17T19:39:11.042Z,100050.44
2023-04-17T19:41:37.828Z,100058.28
2023-04-17T19:44:04.566Z,100046.94
2023-04-17T19:46:33.619Z,100048.69
2023-04-17T19:49:03.126Z,100041.72
2023-04-17T19:51:32.182Z,100037.25
2023-04-17T19:53:58.796Z,100047.72
2023-04-17T19:56:25.766Z,100040.72
2023-04-17T19:58:52.721Z,100040.81
2023-04-17T20:01:19.518Z,100039.97
2023-04-17T20:03:46.412Z,100036.47
2023-04-17T20:06:15.702Z,100035.56
2023-04-17T20:08:42.398Z,100043.38
2023-04-17T20:11:12.127Z,100046.06
2023-04-17T20:13:39.101Z,100035.56
2023-04-17T20:16:06.461Z,100041.66
2023-04-17T20:18:37.468Z,100038.13
2023-04-17T20:21:05.896Z,100047.69
2023-04-17T20:23:35.397Z,100045.03
2023-04-17T20:26:03.385Z,100044.19
2023-04-17T20:28:32.436Z,100046.81
2023-04-17T20:31:02.020Z,100055.56
2023-04-17T20:33:28.720Z,100048.63
2023-04-17T20:35:55.625Z,100052.97
2023-04-17T20:38:24.859Z,100059.03
2023-04-17T20:40:51.424Z,100063.44
2023-04-17T20:43:20.924Z,100058.25
2023-04-17T20:45:49.675Z,100065.19
2023-04-17T20:48:18.742Z,100068.63
2023-04-17T20:50:47.861Z,100067.75
2023-04-17T20:53:18.928Z,100063.44
2023-04-17T20:55:47.157Z,100073.97
2023-04-17T20:58:13.861Z,100074.81
2023-04-17T21:00:50.642Z,100074.75
2023-04-17T21:03:30.614Z,100073.09
2023-04-17T21:06:00.348Z,100078.38
2023-04-17T21:08:27.001Z,100083.69
2023-04-17T21:10:53.795Z,100077.59
2023-04-17T21:13:21.046Z,100083.69
2023-04-17T21:15:47.834Z,100085.34
2023-04-17T21:18:19.232Z,100076.56
2023-04-17T21:20:46.005Z,100073.94
2023-04-17T21:23:17.850Z,100073.94
2023-04-17T21:25:44.443Z,100076.56
2023-04-17T21:28:11.033Z,100079.09
2023-04-17T21:30:39.772Z,100079.03
2023-04-17T21:33:11.220Z,100077.28
2023-04-17T21:35:38.275Z,100079.00
2023-04-17T21:38:05.019Z,100074.66
2023-04-17T21:40:33.567Z,100077.25
2023-04-17T21:43:03.001Z,100073.81
2023-04-17T21:45:30.888Z,100074.69
2023-04-17T21:47:57.957Z,100073.81
2023-04-17T21:50:30.202Z,100078.13
2023-04-17T21:52:59.126Z,100074.63
2023-04-17T21:55:26.153Z,100069.38
2023-04-17T21:57:52.890Z,100065.91
2023-04-17T22:00:19.707Z,100070.25
2023-04-17T22:02:48.511Z,100064.09
2023-04-17T22:05:15.618Z,100071.00
2023-04-17T22:07:51.687Z,100071.00
2023-04-17T22:10:22.035Z,100072.81
2023-04-17T22:12:51.536Z,100075.44
2023-04-17T22:15:18.642Z,100071.03
2023-04-17T22:17:45.600Z,100077.13
2023-04-17T22:20:12.370Z,100072.75
2023-04-17T22:22:38.966Z,100074.41
2023-04-17T22:25:05.813Z,100073.53
2023-04-17T22:27:32.454Z,100075.25
2023-04-17T22:29:59.128Z,100070.91
2023-04-17T22:32:28.314Z,100082.19
2023-04-17T22:34:57.706Z,100089.13
2023-04-17T22:37:24.287Z,100082.16
2023-04-17T22:39:51.040Z,100090.75
2023-04-17T22:42:17.748Z,100093.34
2023-04-17T22:44:44.293Z,100089.91
2023-04-17T22:47:10.873Z,100097.69
2023-04-17T22:49:40.748Z,100091.56
2023-04-17T22:52:10.302Z,100095.09
2023-04-17T22:54:37.363Z,100084.72
2023-04-17T22:57:04.034Z,100090.91
2023-04-17T22:59:30.607Z,100098.72
2023-04-17T23:01:57.555Z,100103.00
2023-04-17T23:04:24.407Z,100104.75
2023-04-17T23:06:54.244Z,100101.19
2023-04-17T23:09:20.955Z,100095.94
2023-04-17T23:11:50.116Z,100095.03
2023-04-17T23:14:18.974Z,100098.53
2023-04-17T23:16:45.646Z,100098.38
2023-04-17T23:19:14.573Z,100100.94
2023-04-17T23:21:43.713Z,100101.91
2023-04-17T23:24:11.707Z,100092.19
2023-04-17T23:26:38.589Z,100099.19
2023-04-17T23:29:05.379Z,100100.94
2023-04-17T23:31:34.762Z,100100.94
2023-04-17T23:34:01.419Z,100099.22
2023-04-17T23:36:28.018Z,100095.66
2023-04-17T23:38:56.778Z,100097.38
2023-04-17T23:41:29.706Z,100093.09
2023-04-17T23:43:58.817Z,100096.50
2023-04-17T23:46:27.670Z,100094.66
2023-04-17T23:48:54.293Z,100095.38
2023-04-17T23:51:21.003Z,100092.78
2023-04-17T23:53:49.202Z,100092.66
2023-04-17T23:56:16.621Z,100087.34
2023-04-17T23:58:45.376Z,100081.94
